sensor_id;sensor_type;location;lat;lon;timestamp;temperature;humidity
62853;DHT22;49205;44.868;38.140;2022-08-25T07:03:18;26.50;56.20
62853;DHT22;49205;44.868;38.140;2022-08-25T07:05:52;26.40;56.50
62853;DHT22;49205;44.868;38.140;2022-08-25T07:08:28;26.50;56.20
62853;DHT22;49205;44.868;38.140;2022-08-25T07:11:02;26.60;56.20
62853;DHT22;49205;44.868;38.140;2022-08-25T07:13:28;26.70;56.10
62853;DHT22;49205;44.868;38.140;2022-08-25T07:15:59;26.80;56.10
62853;DHT22;49205;44.868;38.140;2022-08-25T07:18:28;26.90;55.90
62853;DHT22;49205;44.868;38.140;2022-08-25T07:20:58;27.00;55.30
62853;DHT22;49205;44.868;38.140;2022-08-25T07:23:27;27.10;55.40
62853;DHT22;49205;44.868;38.140;2022-08-25T07:25:56;27.10;55.20
62853;DHT22;49205;44.868;38.140;2022-08-25T07:28:27;27.20;55.40
62853;DHT22;49205;44.868;38.140;2022-08-25T07:30:57;27.20;55.30
62853;DHT22;49205;44.868;38.140;2022-08-25T07:33:27;27.20;55.30
62853;DHT22;49205;44.868;38.140;2022-08-25T07:35:57;27.30;55.20
62853;DHT22;49205;44.868;38.140;2022-08-25T07:38:26;27.30;55.20
62853;DHT22;49205;44.868;38.140;2022-08-25T07:41:02;27.40;55.40
62853;DHT22;49205;44.868;38.140;2022-08-25T07:43:32;27.40;55.30
62853;DHT22;49205;44.868;38.140;2022-08-25T07:46:05;27.40;55.40
62853;DHT22;49205;44.868;38.140;2022-08-25T07:48:33;27.50;55.60
62853;DHT22;49205;44.868;38.140;2022-08-25T07:51:07;27.50;55.70
62853;DHT22;49205;44.868;38.140;2022-08-25T07:53:36;27.50;55.60
62853;DHT22;49205;44.868;38.140;2022-08-25T07:56:09;27.60;55.40
62853;DHT22;49205;44.868;38.140;2022-08-25T07:58:40;27.60;55.70
62853;DHT22;49205;44.868;38.140;2022-08-25T08:01:20;27.60;55.80
62853;DHT22;49205;44.868;38.140;2022-08-25T08:03:50;27.70;55.80
62853;DHT22;49205;44.868;38.140;2022-08-25T08:06:22;27.70;55.90
62853;DHT22;49205;44.868;38.140;2022-08-25T08:08:52;27.70;56.00
62853;DHT22;49205;44.868;38.140;2022-08-25T08:11:24;27.90;56.20
62853;DHT22;49205;44.868;38.140;2022-08-25T08:13:55;28.00;56.00
62853;DHT22;49205;44.868;38.140;2022-08-25T08:16:26;28.10;55.60
62853;DHT22;49205;44.868;38.140;2022-08-25T08:18:57;28.20;55.60
62853;DHT22;49205;44.868;38.140;2022-08-25T08:21:29;28.20;55.30
62853;DHT22;49205;44.868;38.140;2022-08-25T08:23:59;28.30;55.10
62853;DHT22;49205;44.868;38.140;2022-08-25T08:26:29;28.30;55.10
62853;DHT22;49205;44.868;38.140;2022-08-25T08:28:58;28.30;55.00
62853;DHT22;49205;44.868;38.140;2022-08-25T08:31:28;28.40;55.10
62853;DHT22;49205;44.868;38.140;2022-08-25T08:33:58;28.30;55.30
62853;DHT22;49205;44.868;38.140;2022-08-25T08:36:27;28.40;55.30
62853;DHT22;49205;44.868;38.140;2022-08-25T08:38:57;28.50;55.30
62853;DHT22;49205;44.868;38.140;2022-08-25T08:47:25;28.50;54.60
62853;DHT22;49205;44.868;38.140;2022-08-25T08:52:45;28.60;55.00
62853;DHT22;49205;44.868;38.140;2022-08-25T08:55:26;28.60;55.00
62853;DHT22;49205;44.868;38.140;2022-08-25T08:57:57;28.70;55.00
62853;DHT22;49205;44.868;38.140;2022-08-25T09:00:27;28.80;54.60
62853;DHT22;49205;44.868;38.140;2022-08-25T09:03:05;28.70;54.50
62853;DHT22;49205;44.868;38.140;2022-08-25T09:05:45;28.70;54.80
62853;DHT22;49205;44.868;38.140;2022-08-25T09:08:15;28.60;54.90
62853;DHT22;49205;44.868;38.140;2022-08-25T09:14:07;28.60;55.20
62853;DHT22;49205;44.868;38.140;2022-08-25T09:25:19;29.00;54.90
62853;DHT22;49205;44.868;38.140;2022-08-25T09:30:27;29.20;54.10
62853;DHT22;49205;44.868;38.140;2022-08-25T09:32:57;29.30;54.10
62853;DHT22;49205;44.868;38.140;2022-08-25T09:35:33;29.30;53.70
62853;DHT22;49205;44.868;38.140;2022-08-25T09:38:08;29.40;54.00
62853;DHT22;49205;44.868;38.140;2022-08-25T09:40:43;29.50;53.90
62853;DHT22;49205;44.868;38.140;2022-08-25T09:48:32;29.50;53.70
62853;DHT22;49205;44.868;38.140;2022-08-25T09:51:17;29.50;53.70
62853;DHT22;49205;44.868;38.140;2022-08-25T09:53:49;29.60;53.70
62853;DHT22;49205;44.868;38.140;2022-08-25T09:56:23;29.60;53.60
62853;DHT22;49205;44.868;38.140;2022-08-25T09:58:54;29.70;53.60
62853;DHT22;49205;44.868;38.140;2022-08-25T10:01:27;29.70;53.70
62853;DHT22;49205;44.868;38.140;2022-08-25T10:03:59;29.80;53.70
62853;DHT22;49205;44.868;38.140;2022-08-25T10:06:34;29.80;53.30
62853;DHT22;49205;44.868;38.140;2022-08-25T10:09:06;29.80;52.90
62853;DHT22;49205;44.868;38.140;2022-08-25T10:11:44;29.80;53.10
62853;DHT22;49205;44.868;38.140;2022-08-25T10:16:48;29.90;52.90
62853;DHT22;49205;44.868;38.140;2022-08-25T10:19:29;30.00;52.90
62853;DHT22;49205;44.868;38.140;2022-08-25T10:24:38;30.10;52.40
62853;DHT22;49205;44.868;38.140;2022-08-25T10:27:35;30.20;52.20
62853;DHT22;49205;44.868;38.140;2022-08-25T10:30:21;30.20;52.30
62853;DHT22;49205;44.868;38.140;2022-08-25T10:38:48;30.30;52.10
62853;DHT22;49205;44.868;38.140;2022-08-25T10:41:30;30.30;52.00
62853;DHT22;49205;44.868;38.140;2022-08-25T10:44:17;30.40;52.00
62853;DHT22;49205;44.868;38.140;2022-08-25T10:47:29;30.40;51.60
62853;DHT22;49205;44.868;38.140;2022-08-25T10:50:12;30.30;51.60
62853;DHT22;49205;44.868;38.140;2022-08-25T10:53:02;30.30;51.60
62853;DHT22;49205;44.868;38.140;2022-08-25T10:55:33;30.30;51.60
62853;DHT22;49205;44.868;38.140;2022-08-25T11:00:57;30.30;51.70
62853;DHT22;49205;44.868;38.140;2022-08-25T11:06:16;30.40;51.50
62853;DHT22;49205;44.868;38.140;2022-08-25T11:08:47;30.40;51.60
62853;DHT22;49205;44.868;38.140;2022-08-25T11:16:50;30.50;51.10
62853;DHT22;49205;44.868;38.140;2022-08-25T11:19:27;30.40;51.30
62853;DHT22;49205;44.868;38.140;2022-08-25T11:27:27;30.40;51.30
62853;DHT22;49205;44.868;38.140;2022-08-25T11:30:04;30.40;51.30
62853;DHT22;49205;44.868;38.140;2022-08-25T11:32:34;30.30;51.10
62853;DHT22;49205;44.868;38.140;2022-08-25T11:35:09;30.30;51.40
62853;DHT22;49205;44.868;38.140;2022-08-25T11:45:53;30.00;51.70
62853;DHT22;49205;44.868;38.140;2022-08-25T11:51:35;29.80;52.20
62853;DHT22;49205;44.868;38.140;2022-08-25T11:54:16;29.70;52.40
62853;DHT22;49205;44.868;38.140;2022-08-25T12:11:04;29.60;52.70
62853;DHT22;49205;44.868;38.140;2022-08-25T12:13:43;29.70;53.00
62853;DHT22;49205;44.868;38.140;2022-08-25T12:35:55;29.60;54.20
62853;DHT22;49205;44.868;38.140;2022-08-25T12:38:45;29.70;54.30
62853;DHT22;49205;44.868;38.140;2022-08-25T12:41:20;29.70;54.40
62853;DHT22;49205;44.868;38.140;2022-08-25T12:43:47;29.70;54.50
62853;DHT22;49205;44.868;38.140;2022-08-25T12:48:58;29.70;54.50
62853;DHT22;49205;44.868;38.140;2022-08-25T12:57:02;30.10;54.30
62853;DHT22;49205;44.868;38.140;2022-08-25T12:59:36;30.20;53.80
62853;DHT22;49205;44.868;38.140;2022-08-25T13:08:27;30.50;52.90
62853;DHT22;49205;44.868;38.140;2022-08-25T13:11:10;30.60;52.60
62853;DHT22;49205;44.868;38.140;2022-08-25T13:13:57;30.70;51.80
62853;DHT22;49205;44.868;38.140;2022-08-25T13:16:27;30.80;51.80
62853;DHT22;49205;44.868;38.140;2022-08-25T13:18:57;30.80;51.30
62853;DHT22;49205;44.868;38.140;2022-08-25T13:21:30;30.90;50.80
62853;DHT22;49205;44.868;38.140;2022-08-25T13:24:00;30.90;50.70
62853;DHT22;49205;44.868;38.140;2022-08-25T13:26:39;30.90;50.60
62853;DHT22;49205;44.868;38.140;2022-08-25T13:29:13;30.90;50.60
62853;DHT22;49205;44.868;38.140;2022-08-25T13:31:57;30.90;50.60
62853;DHT22;49205;44.868;38.140;2022-08-25T13:34:35;30.80;50.50
62853;DHT22;49205;44.868;38.140;2022-08-25T13:37:16;30.80;50.40
62853;DHT22;49205;44.868;38.140;2022-08-25T13:40:10;30.80;50.30
62853;DHT22;49205;44.868;38.140;2022-08-25T13:42:41;30.70;50.40
62853;DHT22;49205;44.868;38.140;2022-08-25T13:45:14;30.70;51.30
62853;DHT22;49205;44.868;38.140;2022-08-25T13:47:44;30.80;50.70
62853;DHT22;49205;44.868;38.140;2022-08-25T13:55:54;31.10;49.70
62853;DHT22;49205;44.868;38.140;2022-08-25T13:58:30;31.10;49.50
62853;DHT22;49205;44.868;38.140;2022-08-25T14:03:40;31.30;49.40
62853;DHT22;49205;44.868;38.140;2022-08-25T14:11:39;31.40;48.30
62853;DHT22;49205;44.868;38.140;2022-08-25T14:14:09;31.40;48.80
62853;DHT22;49205;44.868;38.140;2022-08-25T14:19:29;31.40;48.30
62853;DHT22;49205;44.868;38.140;2022-08-25T14:21:59;31.50;48.10
62853;DHT22;49205;44.868;38.140;2022-08-25T14:24:33;31.50;47.70
62853;DHT22;49205;44.868;38.140;2022-08-25T14:27:02;31.50;47.50
62853;DHT22;49205;44.868;38.140;2022-08-25T14:29:37;31.50;47.40
62853;DHT22;49205;44.868;38.140;2022-08-25T14:32:07;31.50;46.60
62853;DHT22;49205;44.868;38.140;2022-08-25T14:34:38;31.50;47.00
62853;DHT22;49205;44.868;38.140;2022-08-25T14:37:13;31.40;46.80
62853;DHT22;49205;44.868;38.140;2022-08-25T14:39:43;31.50;46.80
62853;DHT22;49205;44.868;38.140;2022-08-25T14:42:12;31.40;46.50
62853;DHT22;49205;44.868;38.140;2022-08-25T14:44:43;31.40;46.50
62853;DHT22;49205;44.868;38.140;2022-08-25T14:47:12;31.50;46.60
62853;DHT22;49205;44.868;38.140;2022-08-25T14:49:43;31.40;47.30
62853;DHT22;49205;44.868;38.140;2022-08-25T14:52:19;31.50;46.50
62853;DHT22;49205;44.868;38.140;2022-08-25T14:54:48;31.50;46.40
62853;DHT22;49205;44.868;38.140;2022-08-25T14:57:18;31.40;46.40
62853;DHT22;49205;44.868;38.140;2022-08-25T14:59:48;31.40;46.30
62853;DHT22;49205;44.868;38.140;2022-08-25T15:02:19;31.40;46.20
62853;DHT22;49205;44.868;38.140;2022-08-25T15:04:59;31.40;46.00
62853;DHT22;49205;44.868;38.140;2022-08-25T15:07:24;31.40;46.20
62853;DHT22;49205;44.868;38.140;2022-08-25T15:10:12;31.30;46.30
62853;DHT22;49205;44.868;38.140;2022-08-25T15:12:41;31.20;46.30
62853;DHT22;49205;44.868;38.140;2022-08-25T15:15:11;31.20;46.40
62853;DHT22;49205;44.868;38.140;2022-08-25T15:17:41;31.20;46.50
62853;DHT22;49205;44.868;38.140;2022-08-25T15:20:12;31.10;46.50
62853;DHT22;49205;44.868;38.140;2022-08-25T15:22:42;31.00;46.60
62853;DHT22;49205;44.868;38.140;2022-08-25T15:25:12;31.00;46.70
62853;DHT22;49205;44.868;38.140;2022-08-25T15:27:42;30.90;46.70
62853;DHT22;49205;44.868;38.140;2022-08-25T15:30:12;30.90;46.90
62853;DHT22;49205;44.868;38.140;2022-08-25T15:32:42;30.80;46.90
62853;DHT22;49205;44.868;38.140;2022-08-25T15:35:11;30.80;47.00
62853;DHT22;49205;44.868;38.140;2022-08-25T15:37:40;30.70;46.90
62853;DHT22;49205;44.868;38.140;2022-08-25T15:40:10;30.60;46.90
62853;DHT22;49205;44.868;38.140;2022-08-25T15:42:40;30.60;46.90
62853;DHT22;49205;44.868;38.140;2022-08-25T15:45:10;30.50;46.90
62853;DHT22;49205;44.868;38.140;2022-08-25T15:47:39;30.50;47.00
62853;DHT22;49205;44.868;38.140;2022-08-25T15:50:14;30.50;47.00
62853;DHT22;49205;44.868;38.140;2022-08-25T15:52:44;30.40;46.90
62853;DHT22;49205;44.868;38.140;2022-08-25T15:55:13;30.40;46.80
62853;DHT22;49205;44.868;38.140;2022-08-25T15:57:43;30.40;46.90
62853;DHT22;49205;44.868;38.140;2022-08-25T16:00:13;30.30;46.70
62853;DHT22;49205;44.868;38.140;2022-08-25T16:02:43;30.30;46.90
62853;DHT22;49205;44.868;38.140;2022-08-25T16:05:13;30.30;47.10
62853;DHT22;49205;44.868;38.140;2022-08-25T16:07:43;30.20;47.20
62853;DHT22;49205;44.868;38.140;2022-08-25T16:10:16;30.10;47.40
62853;DHT22;49205;44.868;38.140;2022-08-25T16:12:45;30.10;47.90
62853;DHT22;49205;44.868;38.140;2022-08-25T16:15:14;30.00;47.30
62853;DHT22;49205;44.868;38.140;2022-08-25T16:17:44;30.00;47.40
62853;DHT22;49205;44.868;38.140;2022-08-25T16:20:15;29.90;47.50
62853;DHT22;49205;44.868;38.140;2022-08-25T16:22:45;29.80;47.60
62853;DHT22;49205;44.868;38.140;2022-08-25T16:25:14;29.80;48.00
62853;DHT22;49205;44.868;38.140;2022-08-25T16:27:44;29.80;48.00
62853;DHT22;49205;44.868;38.140;2022-08-25T16:30:14;29.70;48.30
62853;DHT22;49205;44.868;38.140;2022-08-25T16:32:43;29.70;48.80
62853;DHT22;49205;44.868;38.140;2022-08-25T16:35:13;29.60;49.10
62853;DHT22;49205;44.868;38.140;2022-08-25T16:37:43;29.60;48.80
62853;DHT22;49205;44.868;38.140;2022-08-25T16:40:13;29.50;48.90
62853;DHT22;49205;44.868;38.140;2022-08-25T16:42:44;29.50;49.00
62853;DHT22;49205;44.868;38.140;2022-08-25T16:45:13;29.50;49.20
62853;DHT22;49205;44.868;38.140;2022-08-25T16:47:42;29.40;49.00
62853;DHT22;49205;44.868;38.140;2022-08-25T16:50:12;29.40;49.40
62853;DHT22;49205;44.868;38.140;2022-08-25T16:52:42;29.30;49.20
62853;DHT22;49205;44.868;38.140;2022-08-25T16:55:29;29.20;48.90
62853;DHT22;49205;44.868;38.140;2022-08-25T16:57:59;29.20;48.60
62853;DHT22;49205;44.868;38.140;2022-08-25T17:00:29;29.20;48.30
62853;DHT22;49205;44.868;38.140;2022-08-25T17:03:01;29.10;48.30
62853;DHT22;49205;44.868;38.140;2022-08-25T17:05:41;29.10;48.20
62853;DHT22;49205;44.868;38.140;2022-08-25T17:08:11;29.00;48.90
62853;DHT22;49205;44.868;38.140;2022-08-25T17:11:08;29.00;49.10
62853;DHT22;49205;44.868;38.140;2022-08-25T17:13:39;28.90;49.30
62853;DHT22;49205;44.868;38.140;2022-08-25T17:16:09;28.90;49.00
62853;DHT22;49205;44.868;38.140;2022-08-25T17:18:38;28.80;49.80
62853;DHT22;49205;44.868;38.140;2022-08-25T17:21:10;28.80;50.00
62853;DHT22;49205;44.868;38.140;2022-08-25T17:23:41;28.80;50.30
62853;DHT22;49205;44.868;38.140;2022-08-25T17:26:12;28.70;50.90
62853;DHT22;49205;44.868;38.140;2022-08-25T17:28:42;28.60;50.90
62853;DHT22;49205;44.868;38.140;2022-08-25T17:31:12;28.60;51.20
62853;DHT22;49205;44.868;38.140;2022-08-25T17:33:42;28.60;51.60
62853;DHT22;49205;44.868;38.140;2022-08-25T17:36:12;28.50;51.70
62853;DHT22;49205;44.868;38.140;2022-08-25T17:38:42;28.50;51.70
62853;DHT22;49205;44.868;38.140;2022-08-25T17:41:12;28.40;51.80
62853;DHT22;49205;44.868;38.140;2022-08-25T17:43:42;28.40;51.90
62853;DHT22;49205;44.868;38.140;2022-08-25T17:46:12;28.30;52.00
62853;DHT22;49205;44.868;38.140;2022-08-25T17:48:41;28.30;52.20
62853;DHT22;49205;44.868;38.140;2022-08-25T17:51:11;28.20;52.40
62853;DHT22;49205;44.868;38.140;2022-08-25T17:53:40;28.10;52.40
62853;DHT22;49205;44.868;38.140;2022-08-25T17:56:12;28.00;52.60
62853;DHT22;49205;44.868;38.140;2022-08-25T17:58:42;28.00;53.00
62853;DHT22;49205;44.868;38.140;2022-08-25T18:01:19;27.90;52.70
62853;DHT22;49205;44.868;38.140;2022-08-25T18:03:49;27.90;52.70
62853;DHT22;49205;44.868;38.140;2022-08-25T18:06:19;27.80;52.30
62853;DHT22;49205;44.868;38.140;2022-08-25T18:08:50;27.70;51.90
62853;DHT22;49205;44.868;38.140;2022-08-25T18:11:20;27.60;51.80
62853;DHT22;49205;44.868;38.140;2022-08-25T18:13:51;27.50;51.70
62853;DHT22;49205;44.868;38.140;2022-08-25T18:16:21;27.40;51.20
62853;DHT22;49205;44.868;38.140;2022-08-25T18:18:51;27.30;50.80
62853;DHT22;49205;44.868;38.140;2022-08-25T18:21:22;27.30;50.60
62853;DHT22;49205;44.868;38.140;2022-08-25T18:23:52;27.30;50.20
62853;DHT22;49205;44.868;38.140;2022-08-25T18:26:22;27.20;50.20
62853;DHT22;49205;44.868;38.140;2022-08-25T18:28:53;27.30;50.30
62853;DHT22;49205;44.868;38.140;2022-08-25T18:31:22;27.30;50.80
62853;DHT22;49205;44.868;38.140;2022-08-25T18:33:52;27.30;50.70
62853;DHT22;49205;44.868;38.140;2022-08-25T18:36:21;27.40;50.80
62853;DHT22;49205;44.868;38.140;2022-08-25T18:38:51;27.40;51.20
62853;DHT22;49205;44.868;38.140;2022-08-25T18:41:39;27.50;50.50
62853;DHT22;49205;44.868;38.140;2022-08-25T18:44:09;27.50;50.30
62853;DHT22;49205;44.868;38.140;2022-08-25T18:46:39;27.40;50.00
62853;DHT22;49205;44.868;38.140;2022-08-25T18:49:09;27.40;49.80
62853;DHT22;49205;44.868;38.140;2022-08-25T18:51:38;27.40;49.70
62853;DHT22;49205;44.868;38.140;2022-08-25T18:54:07;27.40;49.90
62853;DHT22;49205;44.868;38.140;2022-08-25T18:56:37;27.40;50.00
62853;DHT22;49205;44.868;38.140;2022-08-25T18:59:06;27.40;50.30
62853;DHT22;49205;44.868;38.140;2022-08-25T19:01:35;27.40;50.40
62853;DHT22;49205;44.868;38.140;2022-08-25T19:04:05;27.30;50.80
62853;DHT22;49205;44.868;38.140;2022-08-25T19:06:34;27.30;51.20
62853;DHT22;49205;44.868;38.140;2022-08-25T19:09:04;27.30;51.30
62853;DHT22;49205;44.868;38.140;2022-08-25T19:11:33;27.30;51.40
62853;DHT22;49205;44.868;38.140;2022-08-25T19:14:03;27.20;51.10
62853;DHT22;49205;44.868;38.140;2022-08-25T19:16:35;27.20;51.30
62853;DHT22;49205;44.868;38.140;2022-08-25T19:19:11;27.10;51.50
62853;DHT22;49205;44.868;38.140;2022-08-25T19:21:44;27.10;51.50
62853;DHT22;49205;44.868;38.140;2022-08-25T19:24:14;27.00;51.70
62853;DHT22;49205;44.868;38.140;2022-08-25T19:26:44;27.00;52.30
62853;DHT22;49205;44.868;38.140;2022-08-25T19:29:15;26.90;52.70
62853;DHT22;49205;44.868;38.140;2022-08-25T19:31:46;26.90;53.30
62853;DHT22;49205;44.868;38.140;2022-08-25T19:34:20;26.90;53.80
62853;DHT22;49205;44.868;38.140;2022-08-25T19:36:48;26.80;54.00
62853;DHT22;49205;44.868;38.140;2022-08-25T19:39:17;26.80;54.40
62853;DHT22;49205;44.868;38.140;2022-08-25T19:41:47;26.80;54.60
62853;DHT22;49205;44.868;38.140;2022-08-25T19:44:16;26.70;54.60
62853;DHT22;49205;44.868;38.140;2022-08-25T19:46:45;26.70;55.00
62853;DHT22;49205;44.868;38.140;2022-08-25T19:49:18;26.70;55.10
62853;DHT22;49205;44.868;38.140;2022-08-25T19:51:49;26.60;55.10
62853;DHT22;49205;44.868;38.140;2022-08-25T19:54:32;26.60;54.90
62853;DHT22;49205;44.868;38.140;2022-08-25T19:56:57;26.60;55.10
62853;DHT22;49205;44.868;38.140;2022-08-25T19:59:28;26.60;55.30
62853;DHT22;49205;44.868;38.140;2022-08-25T20:01:58;26.50;55.30
62853;DHT22;49205;44.868;38.140;2022-08-25T20:04:27;26.50;55.30
62853;DHT22;49205;44.868;38.140;2022-08-25T20:06:57;26.50;55.50
62853;DHT22;49205;44.868;38.140;2022-08-25T20:09:26;26.50;55.50
62853;DHT22;49205;44.868;38.140;2022-08-25T20:11:56;26.50;55.80
62853;DHT22;49205;44.868;38.140;2022-08-25T20:14:25;26.50;55.90
62853;DHT22;49205;44.868;38.140;2022-08-25T20:16:54;26.50;56.20
62853;DHT22;49205;44.868;38.140;2022-08-25T20:19:24;26.50;56.70
62853;DHT22;49205;44.868;38.140;2022-08-25T20:21:53;26.50;56.30
62853;DHT22;49205;44.868;38.140;2022-08-25T20:24:23;26.50;56.00
62853;DHT22;49205;44.868;38.140;2022-08-25T20:27:11;26.50;55.40
62853;DHT22;49205;44.868;38.140;2022-08-25T20:29:40;26.40;55.80
62853;DHT22;49205;44.868;38.140;2022-08-25T20:32:10;26.30;56.00
62853;DHT22;49205;44.868;38.140;2022-08-25T20:34:39;26.30;56.20
62853;DHT22;49205;44.868;38.140;2022-08-25T20:37:08;26.30;56.00
62853;DHT22;49205;44.868;38.140;2022-08-25T20:39:39;26.30;55.80
62853;DHT22;49205;44.868;38.140;2022-08-25T20:42:08;26.20;55.50
62853;DHT22;49205;44.868;38.140;2022-08-25T20:44:38;26.20;55.50
62853;DHT22;49205;44.868;38.140;2022-08-25T20:47:08;26.20;56.10
62853;DHT22;49205;44.868;38.140;2022-08-25T20:49:38;26.20;56.00
62853;DHT22;49205;44.868;38.140;2022-08-25T20:52:08;26.10;56.00
62853;DHT22;49205;44.868;38.140;2022-08-25T20:54:38;26.10;56.40
62853;DHT22;49205;44.868;38.140;2022-08-25T20:57:08;26.10;56.50
62853;DHT22;49205;44.868;38.140;2022-08-25T20:59:38;26.20;56.20
62853;DHT22;49205;44.868;38.140;2022-08-25T21:02:07;26.20;56.20
62853;DHT22;49205;44.868;38.140;2022-08-25T21:04:37;26.20;56.00
62853;DHT22;49205;44.868;38.140;2022-08-25T21:07:06;26.20;56.10
62853;DHT22;49205;44.868;38.140;2022-08-25T21:09:36;26.30;56.10
62853;DHT22;49205;44.868;38.140;2022-08-25T21:12:06;26.30;55.80
62853;DHT22;49205;44.868;38.140;2022-08-25T21:14:38;26.30;54.40
62853;DHT22;49205;44.868;38.140;2022-08-25T21:17:13;26.30;55.00
62853;DHT22;49205;44.868;38.140;2022-08-25T21:19:42;26.30;55.40
62853;DHT22;49205;44.868;38.140;2022-08-25T21:22:12;26.30;55.70
62853;DHT22;49205;44.868;38.140;2022-08-25T21:24:41;26.30;55.50
62853;DHT22;49205;44.868;38.140;2022-08-25T21:27:12;26.30;55.60
62853;DHT22;49205;44.868;38.140;2022-08-25T21:29:42;26.30;55.70
62853;DHT22;49205;44.868;38.140;2022-08-25T21:32:11;26.30;56.30
62853;DHT22;49205;44.868;38.140;2022-08-25T21:34:40;26.30;56.30
62853;DHT22;49205;44.868;38.140;2022-08-25T21:37:10;26.30;55.80
62853;DHT22;49205;44.868;38.140;2022-08-25T21:39:39;26.30;55.50
62853;DHT22;49205;44.868;38.140;2022-08-25T21:42:09;26.30;55.40
62853;DHT22;49205;44.868;38.140;2022-08-25T21:44:38;26.30;55.60
62853;DHT22;49205;44.868;38.140;2022-08-25T21:47:08;26.30;55.30
62853;DHT22;49205;44.868;38.140;2022-08-25T21:49:37;26.20;55.10
62853;DHT22;49205;44.868;38.140;2022-08-25T21:52:07;26.20;55.70
62853;DHT22;49205;44.868;38.140;2022-08-25T21:54:36;26.20;55.90
62853;DHT22;49205;44.868;38.140;2022-08-25T21:57:06;26.10;55.60
62853;DHT22;49205;44.868;38.140;2022-08-25T21:59:37;26.10;55.10
62853;DHT22;49205;44.868;38.140;2022-08-25T22:02:09;26.10;55.10
62853;DHT22;49205;44.868;38.140;2022-08-25T22:04:39;26.10;55.60
62853;DHT22;49205;44.868;38.140;2022-08-25T22:07:09;26.10;55.20
62853;DHT22;49205;44.868;38.140;2022-08-25T22:09:39;26.10;55.10
62853;DHT22;49205;44.868;38.140;2022-08-25T22:12:08;26.10;55.30
62853;DHT22;49205;44.868;38.140;2022-08-25T22:14:38;26.00;55.90
62853;DHT22;49205;44.868;38.140;2022-08-25T22:17:07;26.00;56.00
62853;DHT22;49205;44.868;38.140;2022-08-25T22:19:36;25.90;55.90
62853;DHT22;49205;44.868;38.140;2022-08-25T22:22:06;25.80;55.70
62853;DHT22;49205;44.868;38.140;2022-08-25T22:24:35;25.60;55.70
62853;DHT22;49205;44.868;38.140;2022-08-25T22:27:05;25.50;56.00
62853;DHT22;49205;44.868;38.140;2022-08-25T22:29:35;25.60;56.80
62853;DHT22;49205;44.868;38.140;2022-08-25T22:32:04;25.50;56.60
62853;DHT22;49205;44.868;38.140;2022-08-25T22:34:34;25.50;55.70
62853;DHT22;49205;44.868;38.140;2022-08-25T22:37:04;25.50;55.10
62853;DHT22;49205;44.868;38.140;2022-08-25T22:39:33;25.50;55.30
62853;DHT22;49205;44.868;38.140;2022-08-25T22:42:03;25.50;55.00
62853;DHT22;49205;44.868;38.140;2022-08-25T22:44:32;25.50;54.30
62853;DHT22;49205;44.868;38.140;2022-08-25T22:47:02;25.60;55.40
62853;DHT22;49205;44.868;38.140;2022-08-25T22:49:31;25.60;55.30
62853;DHT22;49205;44.868;38.140;2022-08-25T22:52:02;25.70;55.00
62853;DHT22;49205;44.868;38.140;2022-08-25T22:54:32;25.70;55.20
62853;DHT22;49205;44.868;38.140;2022-08-25T22:57:01;25.70;55.20
62853;DHT22;49205;44.868;38.140;2022-08-25T22:59:30;25.70;55.50
62853;DHT22;49205;44.868;38.140;2022-08-25T23:02:00;25.70;55.60
62853;DHT22;49205;44.868;38.140;2022-08-25T23:04:29;25.70;56.10
62853;DHT22;49205;44.868;38.140;2022-08-25T23:06:58;25.70;56.70
62853;DHT22;49205;44.868;38.140;2022-08-25T23:09:28;25.70;56.40
62853;DHT22;49205;44.868;38.140;2022-08-25T23:11:58;25.70;56.10
62853;DHT22;49205;44.868;38.140;2022-08-25T23:14:35;25.60;55.80
62853;DHT22;49205;44.868;38.140;2022-08-25T23:17:05;25.60;55.70
62853;DHT22;49205;44.868;38.140;2022-08-25T23:19:35;25.50;55.90
62853;DHT22;49205;44.868;38.140;2022-08-25T23:22:04;25.50;56.50
62853;DHT22;49205;44.868;38.140;2022-08-25T23:24:40;25.50;56.30
62853;DHT22;49205;44.868;38.140;2022-08-25T23:27:10;25.50;56.00
62853;DHT22;49205;44.868;38.140;2022-08-25T23:29:42;25.40;55.60
62853;DHT22;49205;44.868;38.140;2022-08-25T23:32:13;25.40;55.80
62853;DHT22;49205;44.868;38.140;2022-08-25T23:34:44;25.40;55.70
62853;DHT22;49205;44.868;38.140;2022-08-25T23:37:14;25.30;56.00
62853;DHT22;49205;44.868;38.140;2022-08-25T23:39:44;25.30;55.50
62853;DHT22;49205;44.868;38.140;2022-08-25T23:42:13;25.30;55.70
62853;DHT22;49205;44.868;38.140;2022-08-25T23:44:42;25.30;56.00
62853;DHT22;49205;44.868;38.140;2022-08-25T23:47:12;25.30;55.70
62853;DHT22;49205;44.868;38.140;2022-08-25T23:49:41;25.20;55.50
62853;DHT22;49205;44.868;38.140;2022-08-25T23:52:10;25.20;55.40
62853;DHT22;49205;44.868;38.140;2022-08-25T23:54:42;25.10;55.10
62853;DHT22;49205;44.868;38.140;2022-08-25T23:57:11;25.00;54.80
62853;DHT22;49205;44.868;38.140;2022-08-25T23:59:41;24.90;54.60
